createdAt,value
2018-12-20T00:00:18.770Z,13.4
2018-12-20T00:02:18.462Z,12.4
2018-12-20T00:04:19.380Z,12.4
2018-12-20T00:06:18.828Z,13.1
2018-12-20T00:08:18.609Z,12.4
2018-12-20T00:10:18.898Z,11.5
2018-12-20T00:12:18.708Z,11.9
2018-12-20T00:14:18.439Z,12.5
2018-12-20T00:16:19.076Z,12.7
2018-12-20T00:18:18.764Z,12
2018-12-20T00:20:18.685Z,12.9
2018-12-20T00:22:18.450Z,11.6
2018-12-20T00:24:19.235Z,13.6
2018-12-20T00:26:19.511Z,12.4
2018-12-20T00:28:19.204Z,12.5
2018-12-20T00:30:18.911Z,12.9
2018-12-20T00:32:18.718Z,12.6
2018-12-20T00:34:18.528Z,13.5
2018-12-20T00:36:18.700Z,11.9
2018-12-20T00:38:19.544Z,14.4
2018-12-20T00:40:18.924Z,13
2018-12-20T00:42:18.622Z,12.2
2018-12-20T00:44:19.436Z,12
2018-12-20T00:46:18.621Z,12.1
2018-12-20T00:48:19.406Z,12
2018-12-20T00:50:19.324Z,12
2018-12-20T00:52:18.941Z,12.6
2018-12-20T00:54:18.820Z,12
2018-12-20T00:56:18.880Z,10.3
2018-12-20T00:58:18.761Z,12.4
2018-12-20T01:00:18.831Z,13.2
2018-12-20T01:02:18.485Z,13.1
2018-12-20T01:04:19.183Z,12.2
2018-12-20T01:06:18.499Z,12.3
2018-12-20T01:08:19.431Z,13.4
2018-12-20T01:10:18.874Z,12.3
2018-12-20T01:12:18.741Z,12.4
2018-12-20T01:14:18.566Z,11.2
2018-12-20T01:16:18.584Z,12.1
2018-12-20T01:18:18.529Z,12.3
2018-12-20T01:20:19.375Z,12.7
2018-12-20T01:22:19.220Z,11.9
2018-12-20T01:24:19.032Z,13.2
2018-12-20T01:26:18.476Z,10.2
2018-12-20T01:28:19.326Z,11.9
2018-12-20T01:30:19.218Z,11.7
2018-12-20T01:32:18.851Z,12.8
2018-12-20T01:34:18.842Z,13.3
2018-12-20T01:36:19.069Z,12.2
2018-12-20T01:38:18.821Z,12
2018-12-20T01:40:19.130Z,11.3
2018-12-20T01:42:18.919Z,12.5
2018-12-20T01:44:18.757Z,10.6
2018-12-20T01:46:19.431Z,14.1
2018-12-20T01:48:19.083Z,11.6
2018-12-20T01:50:18.962Z,12.2
2018-12-20T01:52:18.516Z,12.6
2018-12-20T01:54:19.219Z,13.6
2018-12-20T01:56:18.880Z,12.5
2018-12-20T01:58:18.556Z,12.4
2018-12-20T02:00:19.483Z,12.8
2018-12-20T02:02:18.983Z,12.8
2018-12-20T02:04:18.626Z,12
2018-12-20T02:06:18.665Z,14.1
2018-12-20T02:08:19.385Z,14.2
2018-12-20T02:10:18.575Z,13.4
2018-12-20T02:12:19.248Z,12.8
2018-12-20T02:14:19.237Z,11.9
2018-12-20T02:16:18.772Z,10.6
2018-12-20T02:18:18.803Z,12.4
2018-12-20T02:20:18.884Z,12.3
2018-12-20T02:22:18.587Z,11.9
2018-12-20T02:24:18.625Z,12.9
2018-12-20T02:26:18.940Z,13.6
2018-12-20T02:28:18.581Z,15.2
2018-12-20T02:30:19.246Z,13.6
2018-12-20T02:32:19.239Z,13.2
2018-12-20T02:34:18.926Z,14.4
2018-12-20T02:36:19.128Z,14.4
2018-12-20T02:38:19.117Z,14
2018-12-20T02:40:19.491Z,11.6
2018-12-20T02:42:19.159Z,12.9
2018-12-20T02:44:19.039Z,13
2018-12-20T02:46:18.882Z,13.4
2018-12-20T02:48:18.673Z,13.5
2018-12-20T02:50:19.367Z,13.6
2018-12-20T02:52:19.049Z,11.9
2018-12-20T02:54:18.895Z,13.5
2018-12-20T02:56:19.478Z,11.6
2018-12-20T02:58:19.145Z,12.8
2018-12-20T03:00:18.845Z,12.9
2018-12-20T03:02:18.599Z,12
2018-12-20T03:04:19.274Z,13.6
2018-12-20T03:06:19.148Z,13.3
2018-12-20T03:08:19.607Z,12.3
2018-12-20T03:10:19.129Z,13.9
2018-12-20T03:12:19.052Z,12.8
2018-12-20T03:14:19.160Z,13.1
2018-12-20T03:16:18.783Z,13.6
2018-12-20T03:18:18.757Z,13.9
2018-12-20T03:20:18.646Z,13.8
2018-12-20T03:22:19.325Z,10.9
2018-12-20T03:24:19.217Z,12.4
2018-12-20T03:26:19.229Z,12.8
2018-12-20T03:28:19.285Z,14
2018-12-20T03:30:19.243Z,12.8
2018-12-20T03:32:18.940Z,13
2018-12-20T03:34:18.682Z,13.5
2018-12-20T03:36:19.203Z,13.9
2018-12-20T03:38:18.875Z,13.6
2018-12-20T03:40:19.136Z,13.7
2018-12-20T03:42:18.994Z,12.7
2018-12-20T03:44:18.782Z,14.7
2018-12-20T03:46:19.431Z,12
2018-12-20T03:48:19.163Z,13.1
2018-12-20T03:50:18.969Z,14.9
2018-12-20T03:52:18.768Z,13
2018-12-20T03:54:19.538Z,14.8
2018-12-20T03:56:19.217Z,13.4
2018-12-20T03:58:19.097Z,14.9
2018-12-20T04:00:18.764Z,14.6
2018-12-20T04:02:18.592Z,14.3
2018-12-20T04:04:19.478Z,14
2018-12-20T04:06:19.138Z,13.3
2018-12-20T04:08:18.912Z,13.8
2018-12-20T04:10:19.104Z,15.7
2018-12-20T04:12:18.977Z,14.1
2018-12-20T04:14:18.680Z,14.9
2018-12-20T04:16:18.470Z,14.1
2018-12-20T04:18:18.620Z,13.4
2018-12-20T04:20:18.540Z,14.3
2018-12-20T04:22:19.266Z,14.2
2018-12-20T04:24:19.238Z,15.1
2018-12-20T04:26:19.466Z,13.8
2018-12-20T04:28:19.452Z,15.1
2018-12-20T04:30:19.109Z,15.3
2018-12-20T04:32:18.974Z,15
2018-12-20T04:34:18.815Z,13.8
2018-12-20T04:36:18.721Z,12.9
2018-12-20T04:38:18.812Z,13.5
2018-12-20T04:40:19.053Z,14.1
2018-12-20T04:42:19.011Z,14.7
2018-12-20T04:44:18.740Z,13.6
2018-12-20T04:46:19.252Z,14.3
2018-12-20T04:48:19.327Z,14.6
2018-12-20T04:50:19.052Z,14.7
2018-12-20T04:52:19.120Z,14.6
2018-12-20T04:54:18.798Z,13.3
2018-12-20T04:56:19.263Z,13.1
2018-12-20T04:58:18.913Z,14.8
2018-12-20T05:00:18.773Z,14
2018-12-20T05:02:18.761Z,14
2018-12-20T05:04:18.568Z,12.9
2018-12-20T05:06:19.351Z,14.4
2018-12-20T05:08:19.191Z,13.7
2018-12-20T05:10:19.425Z,12.8
2018-12-20T05:12:19.385Z,15.3
2018-12-20T05:14:19.226Z,15.2
2018-12-20T05:16:19.480Z,14
2018-12-20T05:18:19.214Z,15.2
2018-12-20T05:20:18.914Z,14.2
2018-12-20T05:22:18.689Z,13.8
2018-12-20T05:24:18.798Z,14.6
2018-12-20T05:26:18.764Z,13.1
2018-12-20T05:28:19.433Z,13.7
2018-12-20T05:30:19.355Z,16
2018-12-20T05:32:19.236Z,14.4
2018-12-20T05:34:19.085Z,14.6
2018-12-20T05:36:19.159Z,14.7
2018-12-20T05:38:18.994Z,13.2
2018-12-20T05:40:19.319Z,13
2018-12-20T05:42:19.234Z,13
2018-12-20T05:44:18.899Z,13.7
2018-12-20T05:46:18.836Z,14.1
2018-12-20T05:48:18.728Z,13.6
2018-12-20T05:50:18.620Z,13.8
2018-12-20T05:52:18.583Z,13.9
2018-12-20T05:54:19.534Z,14.1
2018-12-20T05:56:19.391Z,14
2018-12-20T05:58:19.062Z,15.1
2018-12-20T06:00:19.234Z,14.3
2018-12-20T06:02:19.411Z,13.7
2018-12-20T06:04:19.086Z,15
2018-12-20T06:06:18.671Z,15.4
2018-12-20T06:08:18.488Z,14
2018-12-20T06:10:18.872Z,15.3
2018-12-20T06:12:18.987Z,13.6
2018-12-20T06:14:18.738Z,14
2018-12-20T06:16:18.625Z,13
2018-12-20T06:18:19.541Z,13.4
2018-12-20T06:20:19.260Z,15.1
2018-12-20T06:22:18.927Z,13.9
2018-12-20T06:24:18.606Z,13.3
2018-12-20T06:26:18.624Z,14
2018-12-20T06:28:19.275Z,15
2018-12-20T06:30:18.922Z,12.9
2018-12-20T06:32:18.569Z,14.5
2018-12-20T06:34:19.225Z,12.6
2018-12-20T06:36:19.042Z,13.6
2018-12-20T06:38:18.685Z,13.8
2018-12-20T06:40:18.830Z,15.4
2018-12-20T06:42:18.492Z,14.9
2018-12-20T06:44:19.149Z,15.3
2018-12-20T06:46:21.222Z,15.2
2018-12-20T06:48:19.187Z,13.6
2018-12-20T06:50:18.838Z,14.5
2018-12-20T06:52:18.496Z,15.7
2018-12-20T06:54:19.126Z,14.5
2018-12-20T06:56:18.913Z,14.9
2018-12-20T06:58:18.589Z,14
2018-12-20T07:00:19.229Z,14.3
2018-12-20T07:02:18.890Z,14
2018-12-20T07:04:18.568Z,15.4
2018-12-20T07:06:19.371Z,13.6
2018-12-20T07:08:19.027Z,13.4
2018-12-20T07:10:19.161Z,14.4
2018-12-20T07:12:18.792Z,14
2018-12-20T07:14:19.425Z,15
2018-12-20T07:16:19.191Z,14.1
2018-12-20T07:18:18.907Z,14
2018-12-20T07:20:18.591Z,15.2
2018-12-20T07:22:19.276Z,13.9
2018-12-20T07:24:19.115Z,14.2
2018-12-20T07:26:19.082Z,15.1
2018-12-20T07:28:18.742Z,14
2018-12-20T07:30:19.429Z,15.6
2018-12-20T07:32:25.002Z,14.5
2018-12-20T07:34:19.129Z,15
2018-12-20T07:36:19.193Z,13.8
2018-12-20T07:38:18.854Z,15.3
2018-12-20T07:40:18.944Z,14.3
2018-12-20T07:42:18.588Z,14.5
2018-12-20T07:44:19.214Z,12.7
2018-12-20T07:46:19.003Z,14.8
2018-12-20T07:48:18.641Z,13.7
2018-12-20T07:50:19.291Z,14.7
2018-12-20T07:52:18.919Z,13.3
2018-12-20T07:54:18.599Z,14.1
2018-12-20T07:56:19.407Z,13.7
2018-12-20T07:58:19.081Z,16
2018-12-20T08:00:18.748Z,14.1
2018-12-20T08:02:19.384Z,14.5
2018-12-20T08:04:19.029Z,15.3
2018-12-20T08:06:19.319Z,13.8
2018-12-20T08:08:18.942Z,14
2018-12-20T08:10:19.120Z,13.5
2018-12-20T08:12:18.750Z,14.6
2018-12-20T08:14:19.404Z,13.8
2018-12-20T08:16:18.977Z,15.5
2018-12-20T08:18:18.711Z,14.8
2018-12-20T08:20:19.365Z,12.9
2018-12-20T08:22:19.014Z,14.9
2018-12-20T08:24:18.659Z,15.1
2018-12-20T08:26:18.988Z,16.5
2018-12-20T08:28:18.642Z,14
2018-12-20T08:30:19.365Z,15.4
2018-12-20T08:32:19.007Z,14.8
2018-12-20T08:34:18.660Z,13.7
2018-12-20T08:36:19.053Z,14.9
2018-12-20T08:38:18.732Z,15.6
2018-12-20T08:40:18.898Z,14.8
2018-12-20T08:42:18.557Z,15.4
2018-12-20T08:44:19.209Z,15.3
2018-12-20T08:46:19.264Z,15.8
2018-12-20T08:48:18.897Z,14.8
2018-12-20T08:50:18.553Z,12.8
2018-12-20T08:52:18.526Z,14.3
2018-12-20T08:54:19.179Z,14.9
2018-12-20T08:56:18.554Z,14.4
2018-12-20T08:58:19.203Z,14
2018-12-20T09:00:18.854Z,15.8
2018-12-20T09:02:18.503Z,15.5
2018-12-20T09:04:19.176Z,15.4
2018-12-20T09:06:18.471Z,12.5
2018-12-20T09:08:19.138Z,13.5
2018-12-20T09:10:19.446Z,13.6
2018-12-20T09:12:19.101Z,16.1
2018-12-20T09:14:18.782Z,16
2018-12-20T09:16:19.211Z,15.1
2018-12-20T09:18:18.930Z,15.1
2018-12-20T09:20:18.562Z,14.8
2018-12-20T09:22:19.200Z,14.2
2018-12-20T09:24:18.823Z,15.4
2018-12-20T09:26:18.658Z,13.3
2018-12-20T09:28:19.323Z,14.1
2018-12-20T09:30:19.016Z,12.7
2018-12-20T09:32:18.751Z,13.8
2018-12-20T09:34:19.382Z,13.7
2018-12-20T09:36:18.935Z,13.8
2018-12-20T09:38:18.638Z,12.9
2018-12-20T09:40:18.734Z,15
2018-12-20T09:42:19.376Z,15.3
2018-12-20T09:44:19.071Z,13.9
2018-12-20T09:46:19.406Z,14.4
2018-12-20T09:48:19.235Z,14.4
2018-12-20T09:50:18.892Z,14.4
2018-12-20T09:52:18.550Z,14.5
2018-12-20T09:54:19.190Z,13.4
2018-12-20T09:56:18.583Z,13.8
2018-12-20T09:58:19.237Z,14.2
2018-12-20T10:00:18.893Z,13.2
2018-12-20T10:02:18.581Z,13.5
2018-12-20T10:04:19.221Z,11.3
2018-12-20T10:06:18.652Z,13.5
2018-12-20T10:08:19.277Z,13
2018-12-20T10:10:19.392Z,13.8
2018-12-20T10:12:19.168Z,14.2
2018-12-20T10:14:18.805Z,13.8
2018-12-20T10:16:18.719Z,13.6
2018-12-20T10:18:18.473Z,13.1
2018-12-20T10:20:19.119Z,13.4
2018-12-20T10:22:18.694Z,14.2
2018-12-20T10:24:19.366Z,13.7
2018-12-20T10:26:18.702Z,14.2
2018-12-20T10:28:19.360Z,14.9
2018-12-20T10:30:19.044Z,12.9
2018-12-20T10:32:18.698Z,14.5
2018-12-20T10:34:19.370Z,13.2
2018-12-20T10:36:18.686Z,14.6
2018-12-20T10:38:19.328Z,14.4
2018-12-20T10:40:19.425Z,14.7
2018-12-20T10:42:19.092Z,13.7
2018-12-20T10:44:18.731Z,15.4
2018-12-20T10:46:19.083Z,13.5
2018-12-20T10:48:18.764Z,13.6
2018-12-20T10:50:19.427Z,13.4
2018-12-20T10:52:19.507Z,12.5
2018-12-20T10:54:19.262Z,13.3
2018-12-20T10:56:18.521Z,14.5
2018-12-20T10:58:21.420Z,12.8
2018-12-20T11:00:19.180Z,14.1
2018-12-20T11:02:18.834Z,11.5
2018-12-20T11:04:18.460Z,11.4
2018-12-20T11:06:18.751Z,14.4
2018-12-20T11:08:19.377Z,12.2
2018-12-20T11:10:18.529Z,13.6
2018-12-20T11:12:19.204Z,13.6
2018-12-20T11:14:18.877Z,12.4
2018-12-20T11:16:18.757Z,11.8
2018-12-20T11:18:18.509Z,11.4
2018-12-20T11:20:19.189Z,12.5
2018-12-20T11:22:18.853Z,12.5
2018-12-20T11:24:18.518Z,11.9
2018-12-20T11:26:18.810Z,11.4
2018-12-20T11:28:18.444Z,11.8
2018-12-20T11:30:19.105Z,11.4
2018-12-20T11:32:18.751Z,12.3
2018-12-20T11:34:19.433Z,12.3
2018-12-20T11:36:19.271Z,12.4
2018-12-20T11:38:18.942Z,12.8
2018-12-20T11:40:19.064Z,12.6
2018-12-20T11:42:18.697Z,11.8
2018-12-20T11:44:19.366Z,11.5
2018-12-20T11:46:18.785Z,12.9
2018-12-20T11:48:18.458Z,13.2
2018-12-20T11:50:19.116Z,13.2
2018-12-20T11:52:18.796Z,13.3
2018-12-20T11:54:19.409Z,11.8
2018-12-20T11:56:18.634Z,12
2018-12-20T11:58:19.314Z,11.2
2018-12-20T12:00:18.967Z,12.4
2018-12-20T12:02:24.353Z,11.9
2018-12-20T12:04:18.476Z,12.1
2018-12-20T12:06:19.315Z,13.2
2018-12-20T12:08:18.966Z,11.7
2018-12-20T12:10:19.071Z,10.6
2018-12-20T12:12:18.726Z,14.3
2018-12-20T12:14:19.354Z,12.3
2018-12-20T12:16:18.707Z,12.5
2018-12-20T12:18:19.425Z,11.1
2018-12-20T12:20:19.198Z,12.4
2018-12-20T12:22:18.849Z,11.2
2018-12-20T12:24:18.521Z,12.1
2018-12-20T12:26:18.884Z,10.7
2018-12-20T12:28:18.529Z,12.8
2018-12-20T12:30:19.238Z,9.9
2018-12-20T12:32:19.040Z,10.6
2018-12-20T12:34:18.690Z,12.4
2018-12-20T12:36:19.237Z,11.3
2018-12-20T12:38:18.893Z,11.9
2018-12-20T12:40:19.168Z,11.6
2018-12-20T12:42:18.799Z,10.7
2018-12-20T12:44:19.469Z,10.4
2018-12-20T12:46:19.112Z,11.3
2018-12-20T12:48:18.783Z,10.9
2018-12-20T12:50:18.695Z,11
2018-12-20T12:52:19.355Z,10.3
2018-12-20T12:54:18.981Z,11.2
2018-12-20T12:56:19.323Z,10.3
2018-12-20T12:58:18.996Z,10.5
2018-12-20T13:00:18.663Z,10.8
2018-12-20T13:02:19.298Z,9.1
2018-12-20T13:04:18.929Z,12.3
2018-12-20T13:06:19.263Z,9.9
2018-12-20T13:08:18.929Z,11.2
2018-12-20T13:10:19.082Z,11.4
2018-12-20T13:12:18.959Z,10.8
2018-12-20T13:14:18.583Z,10.2
2018-12-20T13:16:18.489Z,10
2018-12-20T13:18:19.230Z,9.3
2018-12-20T13:20:18.889Z,10.4
2018-12-20T13:22:18.521Z,11.2
2018-12-20T13:24:19.185Z,10.8
2018-12-20T13:26:18.445Z,9.9
2018-12-20T13:28:19.125Z,10.8
2018-12-20T13:30:18.807Z,10.8
2018-12-20T13:32:19.146Z,10.3
2018-12-20T13:34:18.805Z,11.1
2018-12-20T13:36:19.130Z,11.8
2018-12-20T13:38:18.790Z,9.8
2018-12-20T13:40:18.902Z,9.8
2018-12-20T13:42:18.613Z,11.3
2018-12-20T13:44:19.294Z,10.7
2018-12-20T13:46:18.640Z,11
2018-12-20T13:48:22.290Z,10.6
2018-12-20T13:50:19.238Z,10.3
2018-12-20T13:52:18.905Z,9.8
2018-12-20T13:54:18.658Z,9.7
2018-12-20T13:56:18.509Z,9.8
2018-12-20T13:58:19.141Z,10.1
2018-12-20T14:00:18.810Z,10.8
2018-12-20T14:02:18.477Z,10.8
2018-12-20T14:04:19.126Z,9.9
2018-12-20T14:06:18.782Z,9.5
2018-12-20T14:08:18.480Z,10.8
2018-12-20T14:10:18.645Z,10.3
2018-12-20T14:12:19.314Z,10.8
2018-12-20T14:14:18.963Z,11.3
2018-12-20T14:16:18.844Z,10.3
2018-12-20T14:18:18.594Z,10.4
2018-12-20T14:20:19.274Z,11.3
2018-12-20T14:22:18.940Z,9.2
2018-12-20T14:24:18.629Z,9.3
2018-12-20T14:26:19.226Z,9.7
2018-12-20T14:28:18.895Z,10.9
2018-12-20T14:30:18.547Z,10
2018-12-20T14:32:19.213Z,10
2018-12-20T14:34:18.876Z,9.2
2018-12-20T14:36:19.397Z,10.1
2018-12-20T14:38:19.059Z,11.4
2018-12-20T14:40:19.204Z,9.5
2018-12-20T14:42:18.860Z,7.8
2018-12-20T14:44:18.500Z,9.9
2018-12-20T14:46:18.824Z,10.9
2018-12-20T14:48:18.519Z,10.4
2018-12-20T14:50:19.210Z,9.9
2018-12-20T14:52:18.875Z,8.8
2018-12-20T14:54:18.527Z,10
2018-12-20T14:56:18.869Z,8.8
2018-12-20T14:58:18.530Z,10.9
2018-12-20T15:00:19.283Z,10.7
2018-12-20T15:02:18.927Z,8.4
2018-12-20T15:04:18.704Z,9
2018-12-20T15:06:18.573Z,9.3
2018-12-20T15:08:19.238Z,9.9
2018-12-20T15:10:19.479Z,9.6
2018-12-20T15:12:19.125Z,9.5
2018-12-20T15:14:18.835Z,7.9
2018-12-20T15:16:19.014Z,8.6
2018-12-20T15:18:18.746Z,8.3
2018-12-20T15:20:19.403Z,9.6
2018-12-20T15:22:19.065Z,8.3
2018-12-20T15:24:18.691Z,8.5
2018-12-20T15:26:18.971Z,9.5
2018-12-20T15:28:18.747Z,9.6
2018-12-20T15:30:19.438Z,8.7
2018-12-20T15:32:19.063Z,8.9
2018-12-20T15:34:18.734Z,9.3
2018-12-20T15:36:18.985Z,9.7
2018-12-20T15:38:18.605Z,8.1
2018-12-20T15:40:18.702Z,7.8
2018-12-20T15:42:19.335Z,9.5
2018-12-20T15:44:18.955Z,8.7
2018-12-20T15:46:18.850Z,8
2018-12-20T15:48:18.490Z,7.4
2018-12-20T15:50:19.170Z,8.1
2018-12-20T15:52:18.812Z,8.9
2018-12-20T15:54:18.474Z,8.9
2018-12-20T15:56:19.488Z,7.8
2018-12-20T15:58:20.120Z,7.9
2018-12-20T16:00:18.911Z,8.9
2018-12-20T16:02:18.605Z,7.4
2018-12-20T16:04:19.286Z,9.4
2018-12-20T16:06:19.080Z,8.7
2018-12-20T16:08:18.759Z,7.5
2018-12-20T16:10:18.862Z,8.3
2018-12-20T16:12:18.503Z,8.8
2018-12-20T16:14:19.180Z,8.5
2018-12-20T16:16:18.489Z,8.6
2018-12-20T16:18:19.216Z,7
2018-12-20T16:20:18.880Z,7.5
2018-12-20T16:22:18.519Z,8
2018-12-20T16:24:19.155Z,7.1
2018-12-20T16:26:18.674Z,6.9
2018-12-20T16:28:19.309Z,7.6
2018-12-20T16:30:18.963Z,8
2018-12-20T16:32:18.642Z,8.6
2018-12-20T16:34:19.300Z,8.1
2018-12-20T16:36:19.106Z,8.5
2018-12-20T16:38:18.783Z,8.5
2018-12-20T16:40:18.894Z,7.3
2018-12-20T16:42:18.527Z,7.6
2018-12-20T16:44:19.193Z,8
2018-12-20T16:46:18.674Z,7.3
2018-12-20T16:48:19.314Z,8.4
2018-12-20T16:50:19.007Z,7.7
2018-12-20T16:52:18.641Z,6.9
2018-12-20T16:54:19.295Z,7.1
2018-12-20T16:56:19.206Z,7.7
2018-12-20T16:58:18.882Z,8.2
2018-12-20T17:00:18.703Z,7.5
2018-12-20T17:02:19.365Z,8.3
2018-12-20T17:04:19.073Z,5.8
2018-12-20T17:06:18.480Z,8
2018-12-20T17:08:19.171Z,6.9
2018-12-20T17:10:19.314Z,7.7
2018-12-20T17:12:18.794Z,6.7
2018-12-20T17:14:18.452Z,8.2
2018-12-20T17:16:18.932Z,7.1
2018-12-20T17:18:18.660Z,7.9
2018-12-20T17:20:19.343Z,8.1
2018-12-20T17:22:19.046Z,6.7
2018-12-20T17:24:18.688Z,7.8
2018-12-20T17:26:18.618Z,9.1
2018-12-20T17:28:19.250Z,8.5
2018-12-20T17:30:18.972Z,9.2
2018-12-20T17:32:18.596Z,8.2
2018-12-20T17:34:19.258Z,7.6
2018-12-20T17:36:19.075Z,7.5
2018-12-20T17:38:18.764Z,6.6
2018-12-20T17:40:18.892Z,8.2
2018-12-20T17:42:18.585Z,8.6
2018-12-20T17:44:19.238Z,6.2
2018-12-20T17:46:18.608Z,6.6
2018-12-20T17:48:19.262Z,6.3
2018-12-20T17:50:18.920Z,5.9
2018-12-20T17:52:18.575Z,6.8
2018-12-20T17:54:19.255Z,6.8
2018-12-20T17:56:19.068Z,5.4
2018-12-20T17:58:18.728Z,5.2
2018-12-20T18:00:19.372Z,6.9
2018-12-20T18:02:19.031Z,6.7
2018-12-20T18:04:18.668Z,6.3
2018-12-20T18:06:19.155Z,6.2
2018-12-20T18:08:18.790Z,5.2
2018-12-20T18:10:18.956Z,5.8
2018-12-20T18:12:18.656Z,6.2
2018-12-20T18:14:19.318Z,5.8
2018-12-20T18:16:18.601Z,5
2018-12-20T18:18:19.336Z,4.8
2018-12-20T18:20:18.982Z,6.3
2018-12-20T18:22:18.624Z,6.1
2018-12-20T18:24:19.267Z,5
2018-12-20T18:26:19.087Z,6.1
2018-12-20T18:28:18.746Z,6.3
2018-12-20T18:30:19.416Z,5.7
2018-12-20T18:32:19.062Z,5.6
2018-12-20T18:34:18.747Z,5
2018-12-20T18:36:19.032Z,5
2018-12-20T18:38:18.685Z,6.1
2018-12-20T18:40:18.850Z,5.4
2018-12-20T18:42:18.511Z,6.3
2018-12-20T18:44:19.146Z,5.5
2018-12-20T18:46:18.924Z,5.8
2018-12-20T18:48:18.563Z,5.6
2018-12-20T18:50:19.226Z,5.2
2018-12-20T18:52:18.882Z,6.4
2018-12-20T18:54:18.530Z,5.5
2018-12-20T18:56:19.354Z,6.1
2018-12-20T18:58:19.031Z,6
2018-12-20T19:00:18.804Z,6.4
2018-12-20T19:02:19.203Z,5.2
2018-12-20T19:04:18.858Z,5.7
2018-12-20T19:06:19.090Z,7
2018-12-20T19:08:18.753Z,6.1
2018-12-20T19:10:18.850Z,5.6
2018-12-20T19:12:18.500Z,5.5
2018-12-20T19:14:19.154Z,6.2
2018-12-20T19:16:18.988Z,6.6
2018-12-20T19:18:18.811Z,5.8
2018-12-20T19:20:18.476Z,5.2
2018-12-20T19:22:19.140Z,5
2018-12-20T19:24:18.816Z,5.2
2018-12-20T19:26:19.064Z,5.4
2018-12-20T19:28:18.747Z,5.3
2018-12-20T19:30:19.428Z,6.8
2018-12-20T19:32:19.072Z,6.4
2018-12-20T19:34:18.733Z,6.4
2018-12-20T19:36:19.275Z,5
2018-12-20T19:38:20.517Z,5.8
2018-12-20T19:40:18.909Z,5.6
2018-12-20T19:42:18.575Z,4.9
2018-12-20T19:44:19.261Z,5.2
2018-12-20T19:46:18.559Z,4.7
2018-12-20T19:48:19.196Z,6.1
2018-12-20T19:50:18.847Z,5.3
2018-12-20T19:52:19.279Z,5.7
2018-12-20T19:54:18.935Z,4.8
2018-12-20T19:56:18.743Z,4.7
2018-12-20T19:58:19.413Z,5.5
2018-12-20T20:00:19.105Z,4.4
2018-12-20T20:02:18.748Z,4.6
2018-12-20T20:04:19.382Z,4.7
2018-12-20T20:06:18.686Z,5.2
2018-12-20T20:08:19.319Z,4.1
2018-12-20T20:10:19.431Z,5.4
2018-12-20T20:12:19.073Z,5.1
2018-12-20T20:14:18.720Z,4.3
2018-12-20T20:16:18.539Z,4.8
2018-12-20T20:18:19.286Z,5.4
2018-12-20T20:20:19.076Z,5
2018-12-20T20:22:18.732Z,5.4
2018-12-20T20:24:19.389Z,5.1
2018-12-20T20:26:18.443Z,5.5
2018-12-20T20:28:19.104Z,5.1
2018-12-20T20:30:18.771Z,5
2018-12-20T20:32:19.456Z,4.8
2018-12-20T20:34:19.136Z,4.8
2018-12-20T20:36:18.445Z,4.7
2018-12-20T20:38:19.082Z,4.5
2018-12-20T20:40:19.191Z,4.4
2018-12-20T20:42:18.788Z,4.4
2018-12-20T20:44:19.414Z,3.2
2018-12-20T20:46:18.748Z,3.8
2018-12-20T20:48:19.405Z,4.5
2018-12-20T20:50:22.446Z,4.8
2018-12-20T20:52:19.025Z,3.4
2018-12-20T20:54:18.676Z,3.7
2018-12-20T20:56:18.638Z,4.6
2018-12-20T20:58:19.270Z,4.5
2018-12-20T21:00:18.904Z,4.2
2018-12-20T21:02:18.565Z,4.6
2018-12-20T21:04:19.228Z,4.3
2018-12-20T21:06:19.039Z,4.2
2018-12-20T21:08:18.691Z,4
2018-12-20T21:10:18.805Z,4.6
2018-12-20T21:12:22.713Z,4.7
2018-12-20T21:14:18.895Z,4.2
2018-12-20T21:16:19.147Z,4.2
2018-12-20T21:18:18.913Z,4.1
2018-12-20T21:20:18.573Z,4.5
2018-12-20T21:22:19.238Z,5.2
2018-12-20T21:24:18.903Z,5.1
2018-12-20T21:26:18.874Z,5.8
2018-12-20T21:28:18.548Z,4.9
2018-12-20T21:30:19.225Z,5.4
2018-12-20T21:32:18.871Z,3.8
2018-12-20T21:34:19.072Z,4.5
2018-12-20T21:36:18.512Z,4.1
2018-12-20T21:38:19.183Z,4.6
2018-12-20T21:40:19.311Z,4.7
2018-12-20T21:42:18.935Z,5
2018-12-20T21:44:18.644Z,4.1
2018-12-20T21:46:18.524Z,4.5
2018-12-20T21:48:19.153Z,3.6
2018-12-20T21:50:18.843Z,3.9
2018-12-20T21:52:18.482Z,3.7
2018-12-20T21:54:19.143Z,3.6
2018-12-20T21:56:18.949Z,3.2
2018-12-20T21:58:18.593Z,3
2018-12-20T22:00:19.244Z,3.1
2018-12-20T22:02:18.923Z,3.1
2018-12-20T22:04:18.567Z,2.8
2018-12-20T22:06:19.959Z,3.5
2018-12-20T22:08:18.723Z,3.6
2018-12-20T22:10:18.828Z,2.5
2018-12-20T22:12:18.473Z,3.4
2018-12-20T22:14:19.156Z,3.1
2018-12-20T22:16:19.426Z,3.3
2018-12-20T22:18:19.165Z,2.8
2018-12-20T22:20:18.820Z,3
2018-12-20T22:22:18.511Z,2.8
2018-12-20T22:24:19.154Z,2.3
2018-12-20T22:26:19.092Z,3.3
2018-12-20T22:28:18.767Z,2.5
2018-12-20T22:30:19.438Z,2.6
2018-12-20T22:32:19.161Z,3.2
2018-12-20T22:34:18.807Z,2.5
2018-12-20T22:36:19.107Z,2.4
2018-12-20T22:38:18.772Z,2.2
2018-12-20T22:40:18.883Z,2.8
2018-12-20T22:42:18.540Z,3.4
2018-12-20T22:44:19.191Z,3.2
2018-12-20T22:46:19.154Z,3.4
2018-12-20T22:48:18.822Z,3.7
2018-12-20T22:50:18.500Z,3.2
2018-12-20T22:52:19.157Z,2.8
2018-12-20T22:54:18.857Z,2.8
2018-12-20T22:56:19.140Z,2.7
2018-12-20T22:58:18.796Z,2.4
2018-12-20T23:00:19.650Z,2
2018-12-20T23:02:19.303Z,1.9
2018-12-20T23:04:18.961Z,2.3
2018-12-20T23:06:18.475Z,2.4
2018-12-20T23:08:19.104Z,2.3
2018-12-20T23:10:19.288Z,2
2018-12-20T23:12:18.947Z,1.4
2018-12-20T23:14:18.576Z,1.7
2018-12-20T23:16:18.946Z,2
2018-12-20T23:18:18.652Z,1.9
2018-12-20T23:20:19.282Z,1.9
2018-12-20T23:22:18.933Z,2.1
2018-12-20T23:24:18.567Z,1.7
2018-12-20T23:26:18.904Z,1.7
2018-12-20T23:28:18.548Z,1.6
2018-12-20T23:30:19.208Z,1.7
2018-12-20T23:32:18.865Z,1.5
2018-12-20T23:34:18.525Z,1.9
2018-12-20T23:36:18.808Z,1.4
2018-12-20T23:38:18.437Z,1.6
2018-12-20T23:40:18.605Z,1.9
2018-12-20T23:42:19.223Z,2
2018-12-20T23:44:18.869Z,1.4
2018-12-20T23:46:18.701Z,2.2
2018-12-20T23:48:19.349Z,1.5
2018-12-20T23:50:19.028Z,1.9
2018-12-20T23:52:18.661Z,1.7
2018-12-20T23:54:19.314Z,2.1
2018-12-20T23:56:18.632Z,1.4
2018-12-20T23:58:19.298Z,2.7
